LNG Libra — V7BX3 — position and weather

sailwx.info

Track history (hours):
 
Tides and Currents Weather Stations Pressure Air Temp Water Temp Dewpoint Dewpoint Depression Visibility Wind Speed Wind Dir Waves Ship Positions

LNG Libra

Last reported at 2014-Feb-18 23:26 UTC. Time now 2014-Jul-22 19:00 UTC.
Position N 17°14' W 063°11'.
Warning: this ship's position is months out of date.

Type: Tanker. MMSI: 538001390.

Date/timePositionNaut miles runAvg speedWind from/ knotsBaromVisibWave heightAir tempDewpointWater temp
2014-Feb-18 23:26N 17°14' W 063°11'1314.6
2014-Feb-18 22:33N 17°25' W 063°03'4 4.1
2014-Feb-18 21:29N 17°29' W 063°01'0 0.0
2014-Feb-18 20:29N 17°29' W 063°01'0 0.0
2014-Feb-18 19:29N 17°29' W 063°01'0 0.0
2014-Feb-18 18:29N 17°29' W 063°01'0 0.1
2014-Feb-18 17:29N 17°29' W 063°01'0 0.0
2014-Feb-18 16:29N 17°29' W 063°01'0 0.0
2014-Feb-18 15:35N 17°29' W 063°01'0 0.0
2014-Feb-18 14:29N 17°29' W 063°01'0 0.0
2014-Feb-18 13:29N 17°29' W 063°01'0 0.0
2014-Feb-18 12:29N 17°29' W 063°01'0 0.0
2014-Feb-18 11:32N 17°29' W 063°01'0 0.1
2014-Feb-18 10:29N 17°29' W 063°01'0 0.0
2014-Feb-18 09:23N 17°29' W 063°01'0 0.0
2014-Feb-18 08:29N 17°29' W 063°01'0 0.0
2014-Feb-18 07:33N 17°29' W 063°01'0 0.0
2014-Feb-18 06:33N 17°29' W 063°01'0 0.0
2014-Feb-18 05:33N 17°29' W 063°01'0 0.0
2014-Feb-18 04:33N 17°29' W 063°01'0 0.0
2014-Feb-18 03:33N 17°29' W 063°01'0 0.2
2014-Feb-18 02:33N 17°29' W 063°01'1 1.4
2014-Feb-18 01:33N 17°28' W 063°02'0 0.3
2014-Feb-18 00:33N 17°28' W 063°02'3 2.5
2014-Feb-17 23:33N 17°30' W 063°03'1 0.8
2014-Feb-17 22:28N 17°30' W 063°02'0 0.0
2014-Feb-17 21:28N 17°30' W 063°02'0 0.0
2014-Feb-17 20:28N 17°30' W 063°02'0 0.1
2014-Feb-17 19:28N 17°30' W 063°02'0 0.1
2014-Feb-17 18:28N 17°30' W 063°02'0 0.0
2014-Feb-17 17:28N 17°30' W 063°02'0 0.0
2014-Feb-17 16:28N 17°30' W 063°02'0 0.0
2014-Feb-17 15:28N 17°30' W 063°02'0 0.0
2014-Feb-17 14:28N 17°30' W 063°02'0 0.1
2014-Feb-17 13:28N 17°30' W 063°02'0 0.1
2014-Feb-17 12:28N 17°30' W 063°02'0 0.0
2014-Feb-17 11:28N 17°30' W 063°02'0 0.1
2014-Feb-17 10:28N 17°30' W 063°02'0 0.0
2014-Feb-17 09:28N 17°30' W 063°02'0 0.0
2014-Feb-17 08:28N 17°30' W 063°02'0 0.0
2014-Feb-17 06:28N 17°30' W 063°02'0 0.0
2014-Feb-17 05:28N 17°30' W 063°02'0 0.1
2014-Feb-17 04:28N 17°30' W 063°02'0 0.0
2014-Feb-17 03:33N 17°30' W 063°02'0 0.0
2014-Feb-17 02:33N 17°30' W 063°02'0 0.0
2014-Feb-17 01:33N 17°30' W 063°02'0 0.0
2014-Feb-17 00:33N 17°30' W 063°02'0 0.3
2014-Feb-16 23:33N 17°30' W 063°01'3 3.3
2014-Feb-16 22:33N 17°27' W 063°02'10 9.8
2014-Feb-16 21:33N 17°17' W 062°59'1010.2
2014-Feb-16 20:33N 17°07' W 062°58'  
Track history (hours):
 
Tides and Currents Weather Stations Pressure Air Temp Water Temp Dewpoint Dewpoint Depression Visibility Wind Speed Wind Dir Waves Ship Positions

LNG Libra

Last reported at 2014-Feb-18 23:26 UTC. Time now 2014-Jul-22 19:00 UTC.
Position N 17°14' W 063°11'.
Warning: this ship's position is months out of date.

Type: Tanker. MMSI: 538001390.

Date/timePositionNaut miles runAvg speedWind from/ knotsBaromVisibWave heightAir tempDewpointWater temp
2014-Feb-18 23:26N 17°14' W 063°11'1314.6
2014-Feb-18 22:33N 17°25' W 063°03'4 4.1
2014-Feb-18 21:29N 17°29' W 063°01'0 0.0
2014-Feb-18 20:29N 17°29' W 063°01'0 0.0
2014-Feb-18 19:29N 17°29' W 063°01'0 0.0
2014-Feb-18 18:29N 17°29' W 063°01'0 0.1
2014-Feb-18 17:29N 17°29' W 063°01'0 0.0
2014-Feb-18 16:29N 17°29' W 063°01'0 0.0
2014-Feb-18 15:35N 17°29' W 063°01'0 0.0
2014-Feb-18 14:29N 17°29' W 063°01'0 0.0
2014-Feb-18 13:29N 17°29' W 063°01'0 0.0
2014-Feb-18 12:29N 17°29' W 063°01'0 0.0
2014-Feb-18 11:32N 17°29' W 063°01'0 0.1
2014-Feb-18 10:29N 17°29' W 063°01'0 0.0
2014-Feb-18 09:23N 17°29' W 063°01'0 0.0
2014-Feb-18 08:29N 17°29' W 063°01'0 0.0
2014-Feb-18 07:33N 17°29' W 063°01'0 0.0
2014-Feb-18 06:33N 17°29' W 063°01'0 0.0
2014-Feb-18 05:33N 17°29' W 063°01'0 0.0
2014-Feb-18 04:33N 17°29' W 063°01'0 0.0
2014-Feb-18 03:33N 17°29' W 063°01'0 0.2
2014-Feb-18 02:33N 17°29' W 063°01'1 1.4
2014-Feb-18 01:33N 17°28' W 063°02'0 0.3
2014-Feb-18 00:33N 17°28' W 063°02'3 2.5
2014-Feb-17 23:33N 17°30' W 063°03'1 0.8
2014-Feb-17 22:28N 17°30' W 063°02'0 0.0
2014-Feb-17 21:28N 17°30' W 063°02'0 0.0
2014-Feb-17 20:28N 17°30' W 063°02'0 0.1
2014-Feb-17 19:28N 17°30' W 063°02'0 0.1
2014-Feb-17 18:28N 17°30' W 063°02'0 0.0
2014-Feb-17 17:28N 17°30' W 063°02'0 0.0
2014-Feb-17 16:28N 17°30' W 063°02'0 0.0
2014-Feb-17 15:28N 17°30' W 063°02'0 0.0
2014-Feb-17 14:28N 17°30' W 063°02'0 0.1
2014-Feb-17 13:28N 17°30' W 063°02'0 0.1
2014-Feb-17 12:28N 17°30' W 063°02'0 0.0
2014-Feb-17 11:28N 17°30' W 063°02'0 0.1
2014-Feb-17 10:28N 17°30' W 063°02'0 0.0
2014-Feb-17 09:28N 17°30' W 063°02'0 0.0
2014-Feb-17 08:28N 17°30' W 063°02'0 0.0
2014-Feb-17 06:28N 17°30' W 063°02'0 0.0
2014-Feb-17 05:28N 17°30' W 063°02'0 0.1
2014-Feb-17 04:28N 17°30' W 063°02'0 0.0
2014-Feb-17 03:33N 17°30' W 063°02'0 0.0
2014-Feb-17 02:33N 17°30' W 063°02'0 0.0
2014-Feb-17 01:33N 17°30' W 063°02'0 0.0
2014-Feb-17 00:33N 17°30' W 063°02'0 0.3
2014-Feb-16 23:33N 17°30' W 063°01'3 3.3
2014-Feb-16 22:33N 17°27' W 063°02'10 9.8
2014-Feb-16 21:33N 17°17' W 062°59'1010.2
2014-Feb-16 20:33N 17°07' W 062°58'  

Dump ship's entire track history